Time;durP1;ratioP1;P1;durP2;ratioP2;P2;SDS_P1;SDS_P2;PMS_P1;PMS_P2;Temp;Humidity;BMP_temperature;BMP_pressure;BME280_temperature;BME280_humidity;BME280_pressure;Samples;Min_cycle;Max_cycle;Signal;HPM_P1;HPM_P2
2023/06/12 00:01:01;;;;;;;10.55;3.33;;;21.80;92.10;;;;;;4882423;29;20339;-92
2023/06/12 00:03:33;;;;;;;8.25;3.03;;;21.80;92.30;;;;;;4867394;29;20059;-93
2023/06/12 00:06:12;;;;;;;7.35;3.35;;;21.70;92.60;;;;;;4896777;29;20033;-92
2023/06/12 00:09:03;;;;;;;;;;;;;;;;;;;;;
2023/06/12 00:11:39;;;;;;;7.57;3.10;;;21.60;92.50;;;;;;4895812;29;20064;-92
2023/06/12 00:14:50;;;;;;;7.72;3.08;;;21.60;92.50;;;;;;4877714;29;20068;-92
2023/06/12 00:17:23;;;;;;;6.28;2.97;;;21.50;92.70;;;;;;4894434;29;20033;-91
2023/06/12 00:20:00;;;;;;;6.45;3.33;;;21.40;92.70;;;;;;4882272;29;20069;-92
2023/06/12 00:22:46;;;;;;;6.65;3.30;;;21.30;92.80;;;;;;4853728;29;20045;-93
2023/06/12 00:25:33;;;;;;;10.70;3.00;;;21.40;92.90;;;;;;4867622;29;20033;-92
2023/06/12 00:28:19;;;;;;;6.40;3.05;;;21.30;92.90;;;;;;4862885;29;20061;-92
2023/06/12 00:30:48;;;;;;;9.63;2.80;;;21.30;93.10;;;;;;4883325;29;20057;-92
2023/06/12 00:33:27;;;;;;;8.38;3.10;;;21.20;93.10;;;;;;4881426;29;20025;-91
2023/06/12 00:36:07;;;;;;;8.40;2.80;;;21.10;93.20;;;;;;4867650;29;20442;-92
2023/06/12 00:38:51;;;;;;;7.88;3.20;;;21.10;93.20;;;;;;4867569;29;20032;-92
2023/06/12 00:41:28;;;;;;;7.93;3.08;;;21.10;93.20;;;;;;4867645;29;20067;-91
2023/06/12 00:44:01;;;;;;;8.10;2.97;;;21.00;93.30;;;;;;4882024;29;20045;-92
2023/06/12 00:46:30;;;;;;;9.15;3.15;;;21.00;93.30;;;;;;4866548;29;20117;-91
2023/06/12 00:49:12;;;;;;;6.40;2.92;;;20.90;93.40;;;;;;4866558;29;20175;-92
2023/06/12 00:51:45;;;;;;;6.72;2.83;;;20.90;93.50;;;;;;4870159;29;20397;-92
2023/06/12 00:54:28;;;;;;;8.65;2.97;;;20.90;93.50;;;;;;4859573;29;20069;-91
2023/06/12 00:57:07;;;;;;;5.32;2.80;;;20.80;93.60;;;;;;4885761;29;20052;-92
2023/06/12 00:59:36;;;;;;;4.55;2.67;;;20.80;93.70;;;;;;4884930;29;20096;-92
2023/06/12 01:02:15;;;;;;;9.18;2.85;;;20.80;93.80;;;;;;4886138;29;20163;-91
2023/06/12 01:05:04;;;;;;;10.18;3.10;;;20.70;93.80;;;;;;4870089;29;20071;-91
2023/06/12 01:08:15;;;;;;;8.85;3.05;;;20.70;93.80;;;;;;4884770;29;20032;-93
2023/06/12 01:11:14;;;;;;;8.02;2.80;;;20.60;93.80;;;;;;4895402;29;20419;-91
2023/06/12 01:13:41;;;;;;;9.13;3.00;;;20.60;93.90;;;;;;4874890;29;20041;-91
2023/06/12 01:16:27;;;;;;;10.15;2.80;;;20.50;94.00;;;;;;4868360;29;20029;-93
2023/06/12 01:19:19;;;;;;;;;;;;;;;;;;;;;
2023/06/12 01:21:53;;;;;;;7.20;3.00;;;20.50;94.10;;;;;;4885057;29;20119;-93
2023/06/12 01:24:29;;;;;;;6.72;3.05;;;20.40;94.20;;;;;;4885080;29;20427;-93
2023/06/12 01:27:04;;;;;;;;;;;20.40;94.30;;;;;;4901080;29;20035;-93
2023/06/12 01:30:01;;;;;;;9.70;2.92;;;20.30;94.30;;;;;;4885772;29;19918;-93
2023/06/12 01:32:42;;;;;;;7.68;2.92;;;20.30;94.40;;;;;;4886856;29;20318;-93
2023/06/12 01:35:16;;;;;;;6.10;2.80;;;20.30;94.50;;;;;;4885031;29;20040;-93
2023/06/12 01:38:05;;;;;;;8.38;3.10;;;20.30;94.60;;;;;;4902776;29;20474;-94
2023/06/12 01:40:52;;;;;;;6.50;3.03;;;20.30;94.70;;;;;;4904730;29;20038;-93
2023/06/12 01:43:42;;;;;;;6.93;2.90;;;20.20;94.80;;;;;;4888496;29;20068;-93
2023/06/12 01:46:51;;;;;;;7.57;2.85;;;20.20;94.90;;;;;;4903624;29;20049;-93
2023/06/12 01:49:17;;;;;;;7.07;2.80;;;20.10;95.00;;;;;;4872975;29;20410;-93
2023/06/12 01:51:44;;;;;;;7.97;2.90;;;20.10;95.00;;;;;;4904301;29;20041;-93
2023/06/12 01:54:12;;;;;;;7.55;2.72;;;20.00;95.10;;;;;;4872492;29;20084;-93
2023/06/12 01:56:49;;;;;;;10.32;3.15;;;20.00;95.20;;;;;;4873648;29;20331;-93
2023/06/12 01:59:23;;;;;;;7.75;2.80;;;20.00;95.20;;;;;;4873155;29;20159;-93
2023/06/12 02:02:06;;;;;;;;;;;;;;;;;;;;;
2023/06/12 02:04:39;;;;;;;7.40;2.80;;;19.90;95.40;;;;;;4889377;29;20039;-93
2023/06/12 02:07:18;;;;;;;7.18;2.83;;;19.90;95.50;;;;;;4889132;29;20422;-93
2023/06/12 02:09:50;;;;;;;5.00;2.83;;;19.90;95.60;;;;;;4903745;29;20064;-94
2023/06/12 02:12:38;;;;;;;8.50;2.80;;;19.80;95.70;;;;;;4874131;29;20088;-93
2023/06/12 02:15:07;;;;;;;6.72;2.70;;;19.70;95.70;;;;;;4872568;29;20132;-92
2023/06/12 02:17:39;;;;;;;11.18;2.95;;;19.70;95.90;;;;;;4873360;29;20046;-93
2023/06/12 02:20:16;;;;;;;7.78;2.85;;;19.70;96.00;;;;;;4887729;29;20036;-94
2023/06/12 02:22:55;;;;;;;7.80;3.10;;;19.60;96.10;;;;;;4875154;29;20044;-94
2023/06/12 02:25:29;;;;;;;8.20;2.95;;;19.50;96.10;;;;;;4888147;29;20036;-93
2023/06/12 02:28:00;;;;;;;6.43;2.45;;;19.50;96.20;;;;;;4887949;29;20032;-93
2023/06/12 02:30:34;;;;;;;9.13;3.30;;;19.50;96.40;;;;;;4873341;29;20044;-94
2023/06/12 02:33:09;;;;;;;6.22;2.92;;;19.40;96.40;;;;;;4903393;29;20063;-93
2023/06/12 02:35:48;;;;;;;;;;;;;;;;;;;;;
2023/06/12 02:38:24;;;;;;;6.60;2.72;;;19.20;96.60;;;;;;4888284;29;20047;-92
2023/06/12 02:41:11;;;;;;;6.05;2.83;;;19.20;96.70;;;;;;4903829;29;20060;-93
2023/06/12 02:43:46;;;;;;;6.05;2.95;;;19.20;96.70;;;;;;4888319;29;20107;-93
2023/06/12 02:46:19;;;;;;;7.00;2.60;;;19.10;96.80;;;;;;4887642;29;20080;-93
2023/06/12 02:48:59;;;;;;;8.82;3.03;;;19.10;96.90;;;;;;4902144;29;20041;-94
2023/06/12 02:51:45;;;;;;;8.88;3.20;;;19.10;97.00;;;;;;4885995;29;20327;-94
2023/06/12 02:54:39;;;;;;;9.10;3.13;;;19.10;97.00;;;;;;4882805;29;20036;-93
2023/06/12 02:57:17;;;;;;;9.20;2.83;;;19.00;97.00;;;;;;4899570;29;20132;-94
2023/06/12 02:59:46;;;;;;;5.68;2.60;;;19.00;97.10;;;;;;4896805;29;20041;-94
2023/06/12 03:02:27;;;;;;;10.00;2.90;;;18.90;97.20;;;;;;4869918;29;20453;-94
2023/06/12 03:05:06;;;;;;;8.50;2.97;;;18.90;97.30;;;;;;4852181;29;20096;-94
2023/06/12 03:07:38;;;;;;;7.97;3.13;;;18.90;97.40;;;;;;4884963;29;20077;-94
2023/06/12 03:10:12;;;;;;;6.88;2.97;;;18.90;97.40;;;;;;4871027;29;20044;-94
2023/06/12 03:12:45;;;;;;;5.75;2.83;;;18.90;97.50;;;;;;4886062;29;20048;-94
2023/06/12 03:15:14;;;;;;;8.38;2.72;;;18.80;97.60;;;;;;4886065;29;20096;-94
2023/06/12 03:18:02;;;;;;;8.65;3.08;;;18.70;97.70;;;;;;4886724;29;20047;-94
2023/06/12 03:20:34;;;;;;;6.78;2.70;;;18.70;97.80;;;;;;4885594;29;20033;-94
2023/06/12 03:23:14;;;;;;;9.25;2.70;;;18.70;97.90;;;;;;4915739;29;20036;-94
2023/06/12 03:25:47;;;;;;;6.32;3.00;;;18.70;97.90;;;;;;4917100;29;20433;-94
2023/06/12 03:28:23;;;;;;;;;;;18.70;98.00;;;;;;4901586;29;20041;-94
2023/06/12 03:31:27;;;;;;;;;;;;;;;;;;;;;
2023/06/12 03:34:03;;;;;;;9.30;3.25;;;18.60;98.10;;;;;;4916185;29;20025;-93
2023/06/12 03:36:59;;;;;;;10.60;3.30;;;18.50;98.20;;;;;;4891356;29;20132;-94
2023/06/12 03:40:00;;;;;;;7.50;2.95;;;18.50;98.20;;;;;;4883671;29;20040;-94
2023/06/12 03:42:36;;;;;;;8.40;2.92;;;18.50;98.30;;;;;;4873517;29;20060;-94
2023/06/12 03:45:33;;;;;;;;;;;;;;;;;;;;;
2023/06/12 03:48:19;;;;;;;;;;;;;;;;;;;;;
2023/06/12 03:50:49;;;;;;;8.35;3.10;;;18.40;98.40;;;;;;4868928;29;20093;-93
2023/06/12 03:53:16;;;;;;;6.65;3.22;;;18.40;98.50;;;;;;4882038;29;20373;-93
2023/06/12 03:55:45;;;;;;;14.18;3.10;;;18.30;98.70;;;;;;4867115;29;20037;-94
2023/06/12 03:58:46;;;;;;;;;;;;;;;;;;;;;
2023/06/12 04:01:27;;;;;;;9.85;3.53;;;18.20;98.80;;;;;;4896449;29;20116;-94
2023/06/12 04:04:06;;;;;;;8.25;3.28;;;18.20;98.90;;;;;;4886761;29;20092;-94
2023/06/12 04:06:45;;;;;;;11.32;3.67;;;18.20;99.00;;;;;;4916087;29;20028;-94
2023/06/12 04:09:17;;;;;;;7.80;3.22;;;18.20;99.10;;;;;;4900417;29;20025;-94
2023/06/12 04:12:17;;;;;;;;;;;;;;;;;;;;;
2023/06/12 04:14:50;;;;;;;6.97;3.10;;;18.20;99.20;;;;;;4867435;29;20092;-92
2023/06/12 04:17:18;;;;;;;8.82;3.20;;;18.20;99.30;;;;;;4898826;29;20081;-92
2023/06/12 04:19:49;;;;;;;8.00;3.47;;;18.20;99.40;;;;;;4862447;29;20040;-92
2023/06/12 04:22:16;;;;;;;7.70;3.00;;;18.20;99.40;;;;;;4884144;29;20112;-93
2023/06/12 04:24:51;;;;;;;8.48;3.30;;;18.20;99.50;;;;;;4886472;29;20037;-92
2023/06/12 04:27:17;;;;;;;8.00;3.13;;;18.20;99.40;;;;;;4850428;29;20045;-92
2023/06/12 04:29:46;;;;;;;8.70;3.22;;;18.20;99.50;;;;;;4866638;29;20129;-92
2023/06/12 04:32:13;;;;;;;7.95;3.08;;;18.30;99.60;;;;;;4898994;29;20040;-92
2023/06/12 04:34:45;;;;;;;11.07;3.65;;;18.30;99.70;;;;;;4866438;29;20055;-91
2023/06/12 04:37:13;;;;;;;8.15;3.22;;;18.30;99.70;;;;;;4897632;29;20033;-92
2023/06/12 04:39:45;;;;;;;8.00;3.47;;;18.30;99.70;;;;;;4885313;29;20394;-91
2023/06/12 04:42:16;;;;;;;8.32;3.35;;;18.30;99.90;;;;;;4881428;29;20094;-95
2023/06/12 04:44:48;;;;;;;10.15;3.22;;;18.30;99.90;;;;;;4903499;29;20084;-92
2023/06/12 04:47:17;;;;;;;8.68;3.30;;;18.30;99.90;;;;;;4890905;29;20040;-93
2023/06/12 04:49:45;;;;;;;7.53;2.95;;;18.30;99.90;;;;;;4912308;29;20422;-91
2023/06/12 04:52:19;;;;;;;7.82;3.40;;;18.30;99.90;;;;;;4911600;29;20032;-91
2023/06/12 04:54:55;;;;;;;9.43;3.67;;;18.30;99.90;;;;;;4882155;29;20077;-92
2023/06/12 04:57:27;;;;;;;11.07;3.17;;;18.40;99.90;;;;;;4874382;29;20056;-92
2023/06/12 05:00:05;;;;;;;10.38;3.30;;;18.40;99.90;;;;;;4900558;29;20327;-91
2023/06/12 05:05:33;;;;;;;8.07;3.30;;;18.50;99.90;;;;;;4877910;29;20045;-94
2023/06/12 05:12:13;;;;;;;;;;;;;;;;;;;;;
2023/06/12 05:15:03;;;;;;;11.48;3.05;;;18.50;99.90;;;;;;4868246;29;20072;-94
2023/06/12 05:18:08;;;;;;;11.30;3.55;;;18.50;99.90;;;;;;4855733;29;20045;-93
2023/06/12 05:20:59;;;;;;;8.38;3.10;;;18.50;99.90;;;;;;4855978;29;20051;-93
2023/06/12 05:23:37;;;;;;;7.20;3.17;;;18.50;99.90;;;;;;4857367;29;20144;-93
2023/06/12 05:27:11;;;;;;;8.60;3.50;;;18.50;99.90;;;;;;4839347;29;20359;-93
2023/06/12 05:29:50;;;;;;;8.23;3.08;;;18.50;99.90;;;;;;4832630;29;20049;-94
2023/06/12 05:32:16;;;;;;;8.88;3.25;;;18.60;99.90;;;;;;4802487;29;20049;-92
2023/06/12 05:34:43;;;;;;;8.85;3.38;;;18.60;99.90;;;;;;4838262;29;20143;-92
2023/06/12 05:37:36;;;;;;;8.10;3.05;;;18.70;99.90;;;;;;4854649;29;20124;-93
2023/06/12 05:48:45;;;;;;;10.52;3.70;;;18.80;99.90;;;;;;4902687;29;20465;-93
2023/06/12 05:51:15;;;;;;;8.80;3.88;;;18.80;99.90;;;;;;4872839;29;20040;-93
2023/06/12 05:54:01;;;;;;;9.32;3.45;;;18.90;99.90;;;;;;4884646;29;20050;-93
2023/06/12 05:56:40;;;;;;;8.30;3.38;;;18.90;99.90;;;;;;4885000;29;20079;-95
2023/06/12 06:04:14;;;;;;;9.88;3.88;;;19.10;99.90;;;;;;4847134;29;20044;-94
2023/06/12 06:11:21;;;;;;;16.80;4.47;;;19.10;99.90;;;;;;4885759;29;20476;-95
2023/06/12 06:13:52;;;;;;;8.90;3.70;;;19.10;99.90;;;;;;4854580;29;20037;-94
2023/06/12 06:25:20;;;;;;;8.35;3.70;;;19.30;99.90;;;;;;4848360;29;20081;-93
2023/06/12 06:31:39;;;;;;;11.20;3.75;;;19.50;99.90;;;;;;4831694;29;20094;-94
2023/06/12 06:34:06;;;;;;;13.93;4.00;;;19.50;99.90;;;;;;4789206;29;20030;-93
2023/06/12 06:36:32;;;;;;;11.10;4.03;;;19.60;99.90;;;;;;4869968;29;20458;-94
2023/06/12 06:43:30;;;;;;;9.65;3.60;;;19.70;99.90;;;;;;4885243;29;20561;-93
2023/06/12 06:50:53;;;;;;;8.70;3.78;;;19.90;99.90;;;;;;4885421;29;20072;-95
2023/06/12 06:53:38;;;;;;;;;;;;;;;;;;;;;
2023/06/12 06:57:50;;;;;;;10.85;3.90;;;20.00;99.90;;;;;;4832995;29;20367;-93
2023/06/12 07:00:25;;;;;;;8.80;3.70;;;20.20;99.90;;;;;;4884335;29;20029;-93
2023/06/12 07:03:33;;;;;;;9.25;3.75;;;20.20;99.90;;;;;;4883359;29;20044;-94
2023/06/12 07:11:43;;;;;;;;;;;;;;;;;;;;;
2023/06/12 07:14:19;;;;;;;11.07;3.80;;;20.60;99.90;;;;;;4851187;29;20064;-94
2023/06/12 07:18:12;;;;;;;10.18;3.92;;;20.70;99.90;;;;;;4797326;29;20372;-94
2023/06/12 07:21:26;;;;;;;8.85;3.90;;;20.70;99.90;;;;;;4813434;29;20035;-93
2023/06/12 07:28:49;;;;;;;9.32;3.63;;;21.00;99.90;;;;;;4826509;29;20042;-94
2023/06/12 07:32:20;;;;;;;;;;;;;;;;;;;;;
2023/06/12 07:36:25;;;;;;;8.60;4.60;;;21.20;99.90;;;;;;4791081;29;20445;-94
2023/06/12 07:50:23;;;;;;;;;;;;;;;;;;;;;
2023/06/12 07:57:34;;;;;;;8.50;4.35;;;22.00;99.90;;;;;;4882927;29;20109;-94
2023/06/12 08:05:18;;;;;;;7.32;3.67;;;22.20;99.90;;;;;;4773129;30;20070;-95
2023/06/12 08:20:37;;;;;;;;;;;;;;;;;;;;;
2023/06/12 08:29:49;;;;;;;8.23;4.13;;;23.10;99.50;;;;;;4826886;29;20038;-94
2023/06/12 08:37:30;;;;;;;12.13;3.60;;;23.40;99.10;;;;;;4884323;29;20036;-95
2023/06/12 08:45:00;;;;;;;7.30;3.50;;;23.80;98.80;;;;;;4883426;29;20044;-94
2023/06/12 08:49:25;;;;;;;8.85;3.90;;;23.90;98.30;;;;;;4826550;29;20058;-94
2023/06/12 08:52:33;;;;;;;10.15;3.72;;;24.10;98.20;;;;;;4812851;29;20039;-94
2023/06/12 09:18:11;;;;;;;7.82;3.30;;;25.20;96.50;;;;;;4827065;29;20052;-93
2023/06/12 09:34:32;;;;;;;7.40;3.50;;;25.90;94.40;;;;;;4826690;29;20075;-93
2023/06/12 09:41:37;;;;;;;11.70;3.70;;;26.30;93.50;;;;;;4826096;29;20125;-91
2023/06/12 09:44:29;;;;;;;;;;;;;;;;;;;;;
2023/06/12 09:47:39;;;;;;;;;;;;;;;;;;;;;
2023/06/12 09:50:37;;;;;;;6.47;3.17;;;26.20;92.80;;;;;;4818692;29;20232;-92
2023/06/12 09:53:49;;;;;;;7.95;3.50;;;26.20;92.70;;;;;;4833401;29;20305;-93
2023/06/12 09:56:46;;;;;;;11.63;3.20;;;26.20;92.50;;;;;;4836690;29;20120;-95
2023/06/12 09:59:49;;;;;;;6.15;2.88;;;26.30;92.40;;;;;;4852558;29;20034;-95
2023/06/12 10:02:38;;;;;;;6.80;3.20;;;26.30;92.20;;;;;;4849700;29;20030;-95
2023/06/12 10:05:38;;;;;;;6.15;2.97;;;26.40;91.80;;;;;;4865541;29;20033;-93
2023/06/12 10:08:20;;;;;;;7.80;3.00;;;26.50;91.80;;;;;;4848914;29;20045;-94
2023/06/12 10:11:19;;;;;;;;;;;;;;;;;;;;;
2023/06/12 10:14:26;;;;;;;7.35;3.30;;;26.70;92.40;;;;;;4902475;29;20025;-93
2023/06/12 10:17:21;;;;;;;11.02;4.03;;;26.80;92.30;;;;;;4889999;29;20037;-94
2023/06/12 10:20:14;;;;;;;10.48;3.60;;;26.90;92.10;;;;;;4875965;29;20037;-93
2023/06/12 10:23:02;;;;;;;6.53;2.85;;;27.00;91.50;;;;;;4883915;29;20100;-94
2023/06/12 10:25:58;;;;;;;;;;;;;;;;;;;;;
2023/06/12 10:29:00;;;;;;;7.38;3.15;;;27.20;90.00;;;;;;4872531;29;20048;-95
2023/06/12 10:32:12;;;;;;;8.63;3.63;;;27.30;90.30;;;;;;4871934;29;20454;-94
2023/06/12 10:34:48;;;;;;;6.72;3.42;;;27.30;90.30;;;;;;4856534;29;20044;-95
2023/06/12 10:37:42;;;;;;;7.47;2.90;;;27.40;90.20;;;;;;4874143;29;20037;-95
2023/06/12 10:40:38;;;;;;;8.18;3.08;;;27.40;90.00;;;;;;4870288;29;20052;-94
2023/06/12 10:43:26;;;;;;;11.63;3.53;;;27.60;90.30;;;;;;4899952;29;20168;-94
2023/06/12 10:46:04;;;;;;;7.68;3.17;;;27.70;89.40;;;;;;4869857;29;20082;-93
2023/06/12 10:48:47;;;;;;;5.82;3.17;;;27.70;89.30;;;;;;4885196;29;20125;-95
2023/06/12 10:51:43;;;;;;;;;;;;;;;;;;;;;
2023/06/12 10:54:37;;;;;;;6.93;3.10;;;27.80;87.20;;;;;;4880992;29;20033;-93
2023/06/12 10:57:47;;;;;;;;;;;;;;;;;;;;;
2023/06/12 11:00:56;;;;;;;9.65;2.83;;;27.90;86.20;;;;;;4872513;29;20335;-93
2023/06/12 11:03:53;;;;;;;;;;;;;;;;;;;;;
2023/06/12 11:06:39;;;;;;;;;;;;;;;;;;;;;
2023/06/12 11:09:50;;;;;;;;;;;;;;;;;;;;;
2023/06/12 11:12:28;;;;;;;7.70;3.00;;;27.90;83.30;;;;;;4886745;29;20053;-94
2023/06/12 11:15:27;;;;;;;4.88;2.97;;;27.90;83.40;;;;;;4879973;29;20465;-94
2023/06/12 11:18:33;;;;;;;9.15;3.70;;;28.00;83.20;;;;;;4865718;29;20470;-93
2023/06/12 11:21:25;;;;;;;6.13;3.60;;;28.10;84.60;;;;;;4873038;29;20045;-94
2023/06/12 11:24:11;;;;;;;6.90;3.28;;;28.00;84.70;;;;;;4854941;29;20037;-94
2023/06/12 11:26:50;;;;;;;6.85;3.50;;;28.00;84.40;;;;;;4870367;29;20045;-94
2023/06/12 11:29:32;;;;;;;;;;;;;;;;;;;;;
2023/06/12 11:32:37;;;;;;;6.47;3.50;;;28.10;84.70;;;;;;4873047;29;20415;-94
2023/06/12 11:38:54;;;;;;;;;;;;;;;;;;;;;
2023/06/12 11:41:38;;;;;;;5.68;3.35;;;28.30;83.20;;;;;;4888921;29;20457;-94
2023/06/12 11:44:49;;;;;;;8.27;3.50;;;28.40;84.80;;;;;;4882131;29;20320;-92
2023/06/12 11:48:13;;;;;;;7.30;3.40;;;28.50;88.40;;;;;;4891051;29;20092;-94
2023/06/12 11:50:52;;;;;;;5.63;3.20;;;28.40;88.00;;;;;;4853317;29;20611;-93
2023/06/12 11:53:51;;;;;;;6.25;3.35;;;28.40;84.80;;;;;;4870597;29;20037;-95
2023/06/12 11:56:30;;;;;;;;;;;;;;;;;;;;;
2023/06/12 11:59:33;;;;;;;8.18;3.40;;;28.50;82.70;;;;;;4857740;29;20284;-94
2023/06/12 12:02:12;;;;;;;8.82;3.25;;;28.60;82.90;;;;;;4867149;29;20037;-93
2023/06/12 12:05:06;;;;;;;6.00;2.78;;;28.70;83.20;;;;;;4883363;29;20171;-93
2023/06/12 12:08:04;;;;;;;8.27;3.60;;;28.90;84.90;;;;;;4882316;29;20093;-94
2023/06/12 12:11:40;;;;;;;6.78;4.20;;;29.00;86.70;;;;;;4879614;29;20048;-94
2023/06/12 12:14:33;;;;;;;6.65;3.60;;;29.00;89.30;;;;;;4873806;29;20071;-94
2023/06/12 12:17:30;;;;;;;;;;;;;;;;;;;;;
2023/06/12 12:20:26;;;;;;;;;;;29.00;90.30;;;;;;4883285;29;20049;-92
2023/06/12 12:23:10;;;;;;;;;;;;;;;;;;;;;
2023/06/12 12:26:13;;;;;;;9.23;4.00;;;29.20;89.90;;;;;;4869172;29;20455;-93
2023/06/12 12:29:16;;;;;;;;;;;;;;;;;;;;;
2023/06/12 12:32:20;;;;;;;9.00;4.07;;;29.30;90.70;;;;;;4882352;29;20568;-94
2023/06/12 12:35:05;;;;;;;;;;;;;;;;;;;;;
2023/06/12 12:38:16;;;;;;;10.13;4.30;;;29.40;90.90;;;;;;4868218;29;20037;-92
2023/06/12 12:40:59;;;;;;;10.82;4.03;;;29.40;90.90;;;;;;4867965;29;20051;-93
2023/06/12 12:43:37;;;;;;;8.88;4.20;;;29.40;90.90;;;;;;4852179;29;20127;-92
2023/06/12 12:46:14;;;;;;;8.55;4.30;;;29.50;90.60;;;;;;4867948;29;20518;-92
2023/06/12 12:48:45;;;;;;;7.03;3.80;;;29.50;88.60;;;;;;4866940;29;20331;-93
2023/06/12 12:52:04;;;;;;;7.10;4.05;;;29.60;88.80;;;;;;4869544;29;20044;-92
2023/06/12 12:54:51;;;;;;;;;;;;;;;;;;;;;
2023/06/12 12:57:48;;;;;;;8.93;3.85;;;29.90;90.80;;;;;;4868103;29;20466;-92
2023/06/12 13:00:23;;;;;;;8.55;4.53;;;30.00;91.10;;;;;;4882110;29;20068;-91
2023/06/12 13:02:59;;;;;;;9.85;4.45;;;30.00;91.60;;;;;;4882085;29;20091;-93
2023/06/12 13:06:01;;;;;;;11.80;3.97;;;30.10;91.30;;;;;;4881729;29;20041;-91
2023/06/12 13:08:48;;;;;;;10.50;4.63;;;30.20;91.50;;;;;;4854539;29;20343;-93
2023/06/12 13:11:54;;;;;;;;;;;;;;;;;;;;;
2023/06/12 13:15:04;;;;;;;7.78;3.97;;;30.10;91.80;;;;;;4888826;29;20065;-93
2023/06/12 13:17:47;;;;;;;10.88;4.30;;;30.00;92.00;;;;;;4889322;29;20056;-91
2023/06/12 13:20:23;;;;;;;10.05;4.72;;;30.10;91.90;;;;;;4884942;29;20070;-91
2023/06/12 13:22:54;;;;;;;10.13;4.40;;;30.20;92.90;;;;;;4870114;29;20065;-92
2023/06/12 13:25:42;;;;;;;9.65;4.88;;;30.10;92.40;;;;;;4890824;29;20045;-93
2023/06/12 13:28:23;;;;;;;12.13;5.05;;;30.20;92.50;;;;;;4881268;29;20133;-92
2023/06/12 13:31:19;;;;;;;10.38;4.80;;;30.20;92.90;;;;;;4881599;29;20033;-92
2023/06/12 13:33:53;;;;;;;11.52;5.57;;;30.10;93.10;;;;;;4974686;23;20059;-91
2023/06/12 13:36:40;;;;;;;9.23;4.88;;;30.00;92.80;;;;;;4894983;29;20073;-93
2023/06/12 13:39:44;;;;;;;;;;;;;;;;;;;;;
2023/06/12 13:43:12;;;;;;;10.27;5.22;;;30.10;93.40;;;;;;4906411;29;20047;-92
2023/06/12 13:46:11;;;;;;;;;;;;;;;;;;;;;
2023/06/12 13:48:45;;;;;;;9.77;5.45;;;30.20;93.50;;;;;;4913267;29;20046;-91
2023/06/12 13:51:28;;;;;;;16.10;5.20;;;30.10;93.30;;;;;;4941964;29;20107;-91
2023/06/12 13:54:09;;;;;;;9.77;4.85;;;30.10;93.30;;;;;;4912936;29;20139;-90
2023/06/12 13:56:59;;;;;;;;;;;;;;;;;;;;;
2023/06/12 13:59:38;;;;;;;10.48;5.20;;;30.00;93.20;;;;;;4926825;29;20032;-92
2023/06/12 14:03:01;;;;;;;;;;;;;;;;;;;;;
2023/06/12 14:05:58;;;;;;;13.30;5.63;;;30.00;93.90;;;;;;4933370;29;20039;-92
2023/06/12 14:08:41;;;;;;;14.23;5.78;;;30.00;93.90;;;;;;4924427;29;20302;-92
2023/06/12 14:11:34;;;;;;;11.45;6.20;;;30.00;94.00;;;;;;4929774;29;20042;-91
2023/06/12 14:14:11;;;;;;;9.18;6.10;;;30.10;93.80;;;;;;4913566;29;20443;-90
2023/06/12 14:17:01;;;;;;;;;;;;;;;;;;;;;
2023/06/12 14:19:43;;;;;;;;;;;;;;;;;;;;;
2023/06/12 14:22:22;;;;;;;14.98;6.85;;;29.80;94.20;;;;;;4909409;29;20126;-91
2023/06/12 14:25:23;;;;;;;13.95;6.25;;;29.70;94.30;;;;;;4900499;29;20039;-93
2023/06/12 14:28:28;;;;;;;12.05;5.95;;;29.80;94.20;;;;;;4912966;29;20039;-91
2023/06/12 14:31:36;;;;;;;13.38;6.20;;;29.70;94.40;;;;;;4943580;29;20052;-92
2023/06/12 14:34:18;;;;;;;13.85;5.88;;;29.50;94.50;;;;;;4931418;29;20062;-92
2023/06/12 14:36:55;;;;;;;12.88;6.13;;;29.40;94.60;;;;;;4913467;29;20027;-92
2023/06/12 14:39:47;;;;;;;10.45;5.65;;;29.30;94.60;;;;;;4921914;29;20369;-92
2023/06/12 14:43:12;;;;;;;;;;;;;;;;;;;;;
2023/06/12 14:46:18;;;;;;;;;;;;;;;;;;;;;
2023/06/12 14:49:02;;;;;;;;;;;29.70;94.20;;;;;;4906339;29;20040;-92
2023/06/12 14:51:48;;;;;;;8.80;5.37;;;29.90;94.20;;;;;;4922143;29;19915;-92
2023/06/12 14:54:24;;;;;;;13.38;5.88;;;30.10;93.40;;;;;;4892882;29;20032;-91
2023/06/12 14:57:15;;;;;;;10.52;5.47;;;30.20;93.30;;;;;;4909868;29;20031;-91
2023/06/12 15:00:14;;;;;;;;;;;;;;;;;;;;;
2023/06/12 15:02:54;;;;;;;10.43;5.80;;;30.10;93.10;;;;;;4943588;29;20038;-93
2023/06/12 15:05:42;;;;;;;10.60;5.93;;;30.10;92.80;;;;;;4923911;29;20124;-92
2023/06/12 15:08:20;;;;;;;11.10;5.75;;;29.80;92.70;;;;;;4891125;29;20122;-92
2023/06/12 15:11:14;;;;;;;10.70;5.97;;;29.50;92.90;;;;;;4905635;29;20322;-92
2023/06/12 15:13:50;;;;;;;10.43;5.50;;;29.40;93.00;;;;;;4921163;29;20028;-92
2023/06/12 15:16:24;;;;;;;9.07;5.22;;;29.60;93.20;;;;;;4892573;29;20421;-92
2023/06/12 15:19:19;;;;;;;9.32;5.15;;;29.90;93.30;;;;;;4917602;29;20036;-92
2023/06/12 15:22:12;;;;;;;10.60;5.25;;;30.20;93.20;;;;;;4928996;29;20094;-92
2023/06/12 15:25:16;;;;;;;11.68;5.70;;;30.40;92.70;;;;;;4931008;29;20324;-92
2023/06/12 15:27:44;;;;;;;11.43;5.53;;;30.70;92.80;;;;;;4912465;29;20321;-92
2023/06/12 15:30:36;;;;;;;10.05;5.53;;;30.80;92.50;;;;;;4928168;29;20429;-92
2023/06/12 15:33:23;;;;;;;9.85;5.30;;;30.90;92.30;;;;;;4914284;29;20047;-92
2023/06/12 15:35:59;;;;;;;11.73;6.07;;;30.80;92.30;;;;;;4927535;29;20424;-92
2023/06/12 15:38:46;;;;;;;11.30;5.97;;;30.50;92.20;;;;;;4896981;29;20082;-92
2023/06/12 15:41:32;;;;;;;12.25;5.85;;;30.20;92.60;;;;;;4927161;29;20440;-92
2023/06/12 15:44:19;;;;;;;9.80;5.90;;;29.90;92.90;;;;;;4931868;29;20039;-92
2023/06/12 15:47:08;;;;;;;;;;;;;;;;;;;;;
2023/06/12 15:50:10;;;;;;;15.13;6.20;;;29.60;93.00;;;;;;4930711;29;20051;-92
2023/06/12 15:53:21;;;;;;;;;;;;;;;;;;;;;
2023/06/12 15:56:32;;;;;;;14.90;6.63;;;29.40;93.20;;;;;;4921346;29;20047;-92
2023/06/12 15:59:11;;;;;;;10.65;6.18;;;29.40;93.40;;;;;;4943859;29;20138;-92
2023/06/12 16:02:16;;;;;;;13.65;6.25;;;29.50;93.50;;;;;;4930981;29;20046;-91
2023/06/12 16:05:04;;;;;;;15.52;6.03;;;29.70;93.60;;;;;;4912662;29;20036;-92
2023/06/12 16:10:51;;;;;;;10.23;5.45;;;30.10;93.50;;;;;;4924041;29;20051;-92
2023/06/12 16:13:31;;;;;;;13.35;5.57;;;30.20;93.00;;;;;;4892711;29;20513;-92
2023/06/12 16:16:14;;;;;;;9.75;5.50;;;30.20;92.50;;;;;;4923505;29;20451;-92
2023/06/12 16:23:30;;;;;;;12.35;5.30;;;30.30;92.40;;;;;;4927030;28;20102;-92
2023/06/12 16:30:15;;;;;;;8.07;5.50;;;30.30;92.10;;;;;;4922558;29;20058;-92
2023/06/12 16:36:45;;;;;;;9.05;5.32;;;30.10;91.40;;;;;;4939992;29;20038;-92
2023/06/12 16:39:18;;;;;;;10.68;5.18;;;29.80;91.50;;;;;;4891289;29;20151;-93
2023/06/12 16:41:57;;;;;;;12.55;5.60;;;29.80;91.60;;;;;;4893838;29;20114;-92
2023/06/12 16:45:10;;;;;;;;;;;;;;;;;;;;;
2023/06/12 16:48:29;;;;;;;12.73;5.47;;;29.60;91.30;;;;;;4929388;29;20111;-91
2023/06/12 16:51:12;;;;;;;9.38;5.10;;;29.50;91.30;;;;;;4926837;29;20404;-92
2023/06/12 16:54:26;;;;;;;8.35;5.63;;;29.30;91.30;;;;;;4958637;29;20082;-92
2023/06/12 16:57:28;;;;;;;8.25;5.85;;;29.30;91.30;;;;;;4924046;29;20520;-93
2023/06/12 17:00:37;;;;;;;8.88;5.90;;;29.10;91.30;;;;;;4926560;29;20441;-91
2023/06/12 17:03:48;;;;;;;10.73;5.90;;;28.80;91.30;;;;;;4912286;29;20425;-91
2023/06/12 17:07:18;;;;;;;;;;;;;;;;;;;;;
2023/06/12 17:10:23;;;;;;;8.45;6.13;;;28.40;91.40;;;;;;4933137;29;20101;-91
2023/06/12 17:13:37;;;;;;;10.57;5.72;;;28.20;91.70;;;;;;4886664;29;20115;-90
2023/06/12 17:16:26;;;;;;;11.50;6.28;;;28.00;92.20;;;;;;4918761;28;20306;-90
2023/06/12 17:19:02;;;;;;;9.38;5.82;;;27.90;92.60;;;;;;4939171;29;20032;-90
2023/06/12 17:21:45;;;;;;;9.13;5.30;;;27.90;92.80;;;;;;4915582;29;20033;-90
2023/06/12 17:24:31;;;;;;;9.35;5.57;;;27.90;93.00;;;;;;4947085;29;20058;-91
2023/06/12 17:27:12;;;;;;;10.15;6.15;;;27.80;93.10;;;;;;4933026;29;20042;-93
2023/06/12 17:29:51;;;;;;;8.13;5.70;;;27.80;93.10;;;;;;4908946;29;20027;-91
2023/06/12 17:32:32;;;;;;;9.13;6.10;;;27.80;93.10;;;;;;4913859;29;20492;-92
2023/06/12 17:35:04;;;;;;;12.82;5.72;;;27.70;93.30;;;;;;4929665;29;20047;-91
2023/06/12 17:37:34;;;;;;;12.07;6.70;;;27.80;93.50;;;;;;4929298;29;20027;-91
2023/06/12 17:40:08;;;;;;;13.25;6.28;;;27.70;93.40;;;;;;4930004;29;20031;-91
2023/06/12 17:42:34;;;;;;;9.77;6.10;;;27.60;93.50;;;;;;4960690;29;20054;-91
2023/06/12 17:45:03;;;;;;;10.02;5.97;;;27.60;93.70;;;;;;4944471;29;20023;-91
2023/06/12 17:47:32;;;;;;;9.75;6.25;;;27.60;93.80;;;;;;4926632;29;20094;-91
2023/06/12 17:50:09;;;;;;;13.70;6.88;;;27.60;93.90;;;;;;4947826;29;20051;-90
2023/06/12 17:52:40;;;;;;;8.00;5.97;;;27.50;94.00;;;;;;4928966;29;20039;-92
2023/06/12 17:55:09;;;;;;;9.93;5.78;;;27.40;94.10;;;;;;4935379;29;20035;-91
2023/06/12 17:57:43;;;;;;;11.88;7.00;;;27.40;94.30;;;;;;4928444;29;20130;-92
2023/06/12 18:00:33;;;;;;;11.18;6.13;;;27.20;94.20;;;;;;4913053;29;20060;-91
2023/06/12 18:03:06;;;;;;;10.45;6.05;;;27.20;94.50;;;;;;4925567;29;20027;-91
2023/06/12 18:05:39;;;;;;;9.68;5.88;;;27.20;94.40;;;;;;4925718;29;20031;-91
2023/06/12 18:08:08;;;;;;;10.18;5.97;;;27.10;94.40;;;;;;4909916;29;20031;-92
2023/06/12 18:10:53;;;;;;;11.35;6.15;;;27.00;94.40;;;;;;4912592;29;20455;-92